createdAt,value
2022-10-05T00:02:24.721Z,86.08
2022-10-05T00:05:32.151Z,86.38
2022-10-05T00:08:33.563Z,86.00
2022-10-05T00:11:30.194Z,85.60
2022-10-05T00:14:32.442Z,85.54
2022-10-05T00:17:29.603Z,85.66
2022-10-05T00:20:26.450Z,86.73
2022-10-05T00:23:25.584Z,86.70
2022-10-05T00:26:24.962Z,86.96
2022-10-05T00:29:22.855Z,87.65
2022-10-05T00:32:21.091Z,88.39
2022-10-05T00:35:18.855Z,90.02
2022-10-05T00:38:16.248Z,91.32
2022-10-05T00:41:19.568Z,90.43
2022-10-05T00:44:41.121Z,89.86
2022-10-05T00:48:05.398Z,91.30
2022-10-05T00:51:27.356Z,93.02
2022-10-05T00:54:30.297Z,92.54
2022-10-05T00:57:34.088Z,92.94
2022-10-05T01:00:31.090Z,94.30
2022-10-05T01:03:30.884Z,93.53
2022-10-05T01:06:54.213Z,90.83
2022-10-05T01:10:06.881Z,90.19
2022-10-05T01:13:09.854Z,90.36
2022-10-05T01:16:07.145Z,88.87
2022-10-05T01:19:19.809Z,87.97
2022-10-05T01:22:45.268Z,89.13
2022-10-05T01:25:51.542Z,89.37
2022-10-05T01:28:52.686Z,89.19
2022-10-05T01:32:00.257Z,88.53
2022-10-05T01:35:00.233Z,88.83
2022-10-05T01:38:17.186Z,88.56
2022-10-05T01:41:29.991Z,89.49
2022-10-05T01:44:44.706Z,90.47
2022-10-05T01:47:46.099Z,90.95
2022-10-05T01:50:55.064Z,91.37
2022-10-05T01:53:55.618Z,91.75
2022-10-05T01:57:01.967Z,92.94
2022-10-05T02:00:07.974Z,94.25
2022-10-05T02:03:20.831Z,94.95
2022-10-05T02:06:23.921Z,95.13
2022-10-05T02:09:29.006Z,95.27
2022-10-05T02:12:29.570Z,94.04
2022-10-05T02:15:32.689Z,95.72
2022-10-05T02:18:51.084Z,96.59
2022-10-05T02:21:54.126Z,95.80
2022-10-05T02:24:54.032Z,98.45
2022-10-05T02:28:11.516Z,98.72
2022-10-05T02:31:18.496Z,97.24
2022-10-05T02:34:25.977Z,98.22
2022-10-05T02:37:57.484Z,98.60
2022-10-05T02:41:23.185Z,99.86
2022-10-05T02:44:26.486Z,98.55
2022-10-05T02:47:46.610Z,100.00
2022-10-05T02:51:04.383Z,100.00
2022-10-05T02:54:11.194Z,100.00
2022-10-05T02:57:15.764Z,100.00
2022-10-05T03:00:17.477Z,100.00
2022-10-05T03:03:25.287Z,100.00
2022-10-05T03:06:26.725Z,100.00
2022-10-05T03:09:25.606Z,100.00
2022-10-05T03:12:49.136Z,100.00
2022-10-05T03:15:48.161Z,100.00
2022-10-05T03:18:59.295Z,100.00
2022-10-05T03:22:02.506Z,100.00
2022-10-05T03:25:12.548Z,100.00
2022-10-05T03:28:31.163Z,100.00
2022-10-05T03:32:04.435Z,100.00
2022-10-05T03:35:14.911Z,100.00
2022-10-05T03:38:27.628Z,100.00
2022-10-05T03:42:05.228Z,100.00
2022-10-05T03:45:09.451Z,100.00
2022-10-05T03:48:11.853Z,100.00
2022-10-05T03:51:20.438Z,100.00
2022-10-05T03:54:29.615Z,100.00
2022-10-05T03:57:27.701Z,100.00
2022-10-05T04:00:27.730Z,100.00
2022-10-05T04:03:34.060Z,100.00
2022-10-05T04:06:34.563Z,100.00
2022-10-05T04:09:43.344Z,100.00
2022-10-05T04:12:41.716Z,100.00
2022-10-05T04:15:44.077Z,100.00
2022-10-05T04:19:01.579Z,100.00
2022-10-05T04:22:07.856Z,100.00
2022-10-05T04:25:26.664Z,100.00
2022-10-05T04:28:50.781Z,100.00
2022-10-05T04:31:56.154Z,100.00
2022-10-05T04:35:15.388Z,100.00
2022-10-05T04:38:21.365Z,100.00
2022-10-05T04:41:31.061Z,100.00
2022-10-05T04:44:38.526Z,100.00
2022-10-05T04:47:52.682Z,100.00
2022-10-05T04:50:50.174Z,100.00
2022-10-05T04:53:55.322Z,100.00
2022-10-05T04:56:59.149Z,100.00
2022-10-05T05:00:21.437Z,100.00
2022-10-05T05:03:57.735Z,100.00
2022-10-05T05:07:02.686Z,100.00
2022-10-05T05:10:02.488Z,100.00
2022-10-05T05:13:48.611Z,100.00
2022-10-05T05:16:47.847Z,99.32
2022-10-05T05:20:27.047Z,98.63
2022-10-05T05:23:48.224Z,97.17
2022-10-05T05:27:09.414Z,99.00
2022-10-05T05:30:14.054Z,99.93
2022-10-05T05:33:15.660Z,100.00
2022-10-05T05:36:34.858Z,99.96
2022-10-05T05:39:54.731Z,99.12
2022-10-05T05:43:09.869Z,99.98
2022-10-05T05:47:04.418Z,100.00
2022-10-05T05:50:21.492Z,100.00
2022-10-05T05:53:24.122Z,100.00
2022-10-05T05:56:27.123Z,100.00
2022-10-05T05:59:39.770Z,100.00
2022-10-05T06:02:48.262Z,100.00
2022-10-05T06:05:49.649Z,100.00
2022-10-05T06:08:56.275Z,100.00
2022-10-05T06:12:05.147Z,100.00
2022-10-05T06:15:30.976Z,100.00
2022-10-05T06:18:28.446Z,100.00
2022-10-05T06:21:34.568Z,100.00
2022-10-05T06:24:46.130Z,100.00
2022-10-05T06:28:12.685Z,100.00
2022-10-05T06:31:45.661Z,99.66
2022-10-05T06:34:58.010Z,100.00
2022-10-05T06:38:09.379Z,99.91
2022-10-05T06:41:56.326Z,99.26
2022-10-05T06:45:13.512Z,98.48
2022-10-05T06:48:50.890Z,98.62
2022-10-05T06:52:19.418Z,100.00
2022-10-05T06:55:37.860Z,100.00
2022-10-05T06:58:44.845Z,98.76
2022-10-05T07:01:57.394Z,98.15
2022-10-05T07:05:37.284Z,99.73
2022-10-05T07:09:14.209Z,100.00
2022-10-05T07:12:43.613Z,100.00
2022-10-05T07:16:18.115Z,100.00
2022-10-05T07:19:34.202Z,99.72
2022-10-05T07:22:50.234Z,100.00
2022-10-05T07:26:02.558Z,100.00
2022-10-05T07:28:59.588Z,100.00
2022-10-05T07:31:59.114Z,99.64
2022-10-05T07:35:34.416Z,100.00
2022-10-05T07:38:57.397Z,99.45
2022-10-05T07:42:18.977Z,99.32
2022-10-05T07:45:20.186Z,99.51
2022-10-05T07:48:42.295Z,98.52
2022-10-05T07:51:45.255Z,99.76
2022-10-05T07:55:03.488Z,98.57
2022-10-05T07:58:16.961Z,99.04
2022-10-05T08:01:35.206Z,99.28
2022-10-05T08:05:28.950Z,99.57
2022-10-05T08:08:32.437Z,98.97
2022-10-05T08:11:57.750Z,98.66
2022-10-05T08:15:00.521Z,97.56
2022-10-05T08:18:34.380Z,98.03
2022-10-05T08:21:34.475Z,99.06
2022-10-05T08:24:57.915Z,98.42
2022-10-05T08:28:05.127Z,98.06
2022-10-05T08:31:29.990Z,98.16
2022-10-05T08:34:34.821Z,97.43
2022-10-05T08:37:37.614Z,95.95
2022-10-05T08:40:49.920Z,95.99
2022-10-05T08:44:02.786Z,96.09
2022-10-05T08:47:18.237Z,95.76
2022-10-05T08:50:37.826Z,95.57
2022-10-05T08:54:04.044Z,94.87
2022-10-05T08:57:27.890Z,95.02
2022-10-05T09:00:28.267Z,95.01
2022-10-05T09:04:03.613Z,94.48
2022-10-05T09:07:42.782Z,93.76
2022-10-05T09:11:03.931Z,94.33
2022-10-05T09:14:15.824Z,94.68
2022-10-05T09:17:39.301Z,94.01
2022-10-05T09:20:54.261Z,93.43
2022-10-05T09:24:04.485Z,92.20
2022-10-05T09:27:10.655Z,92.28
2022-10-05T09:30:34.791Z,90.78
2022-10-05T09:33:53.213Z,90.75
2022-10-05T09:37:13.862Z,88.99
2022-10-05T09:40:47.466Z,89.33
2022-10-05T09:44:22.081Z,87.00
2022-10-05T09:47:45.281Z,87.88
2022-10-05T09:51:01.357Z,87.10
2022-10-05T09:53:58.732Z,86.59
2022-10-05T09:57:11.947Z,85.64
2022-10-05T10:00:28.352Z,86.23
2022-10-05T10:03:49.178Z,86.08
2022-10-05T10:06:55.317Z,86.66
2022-10-05T10:10:13.923Z,85.20
2022-10-05T10:13:32.254Z,86.91
2022-10-05T10:16:29.939Z,86.23
2022-10-05T10:19:30.762Z,86.35
2022-10-05T10:22:43.364Z,86.11
2022-10-05T10:25:49.591Z,86.74
2022-10-05T10:29:02.971Z,86.31
2022-10-05T10:31:59.594Z,85.55
2022-10-05T10:35:21.685Z,85.18
2022-10-05T10:38:28.982Z,84.58
2022-10-05T10:41:44.090Z,84.78
2022-10-05T10:45:31.771Z,83.60
2022-10-05T10:48:28.822Z,82.54
2022-10-05T10:51:44.005Z,82.20
2022-10-05T10:54:56.178Z,83.13
2022-10-05T10:58:19.692Z,82.37
2022-10-05T11:01:52.408Z,81.56
2022-10-05T11:04:55.794Z,83.13
2022-10-05T11:07:52.729Z,80.81
2022-10-05T11:10:59.239Z,80.46
2022-10-05T11:14:21.343Z,80.95
2022-10-05T11:17:23.603Z,81.17
2022-10-05T11:20:44.356Z,79.94
2022-10-05T11:24:00.559Z,80.83
2022-10-05T11:27:33.997Z,80.54
2022-10-05T11:30:48.856Z,80.63
2022-10-05T11:33:53.681Z,79.77
2022-10-05T11:37:03.474Z,80.42
2022-10-05T11:40:38.565Z,80.08
2022-10-05T11:44:07.312Z,80.62
2022-10-05T11:47:19.883Z,79.38
2022-10-05T11:50:35.981Z,79.33
2022-10-05T11:53:48.039Z,80.10
2022-10-05T11:57:13.810Z,79.76
2022-10-05T12:00:15.613Z,79.60
2022-10-05T12:03:48.219Z,80.80
2022-10-05T12:07:04.753Z,79.25
2022-10-05T12:10:29.023Z,79.30
2022-10-05T12:13:40.355Z,78.78
2022-10-05T12:16:46.197Z,80.36
2022-10-05T12:20:05.973Z,78.25
2022-10-05T12:23:40.568Z,77.71
2022-10-05T12:26:44.891Z,77.03
2022-10-05T12:29:49.690Z,77.72
2022-10-05T12:32:55.878Z,78.31
2022-10-05T12:36:03.768Z,77.06
2022-10-05T12:39:05.274Z,77.91
2022-10-05T12:42:15.189Z,76.81
2022-10-05T12:45:18.148Z,77.92
2022-10-05T12:48:22.344Z,78.39
2022-10-05T12:51:23.327Z,79.08
2022-10-05T12:54:24.943Z,78.49
2022-10-05T12:57:34.276Z,80.00
2022-10-05T13:00:37.566Z,79.00
2022-10-05T13:03:38.024Z,77.71
2022-10-05T13:06:53.444Z,77.35
2022-10-05T13:09:53.899Z,77.58
2022-10-05T13:13:36.075Z,78.03
2022-10-05T13:17:31.182Z,78.79
2022-10-05T13:20:30.016Z,79.50
2022-10-05T13:23:45.771Z,78.87
2022-10-05T13:26:48.591Z,78.90
2022-10-05T13:29:54.178Z,79.37
2022-10-05T13:33:00.059Z,79.62
2022-10-05T13:36:26.253Z,79.01
2022-10-05T13:39:55.179Z,78.72
2022-10-05T13:43:20.264Z,79.03
2022-10-05T13:46:35.555Z,78.83
2022-10-05T13:49:44.553Z,78.92
2022-10-05T13:53:06.535Z,79.45
2022-10-05T13:56:12.438Z,78.45
2022-10-05T13:59:25.127Z,78.49
2022-10-05T14:02:29.687Z,78.08
2022-10-05T14:05:28.088Z,78.41
2022-10-05T14:08:29.818Z,78.15
2022-10-05T14:11:34.941Z,78.81
2022-10-05T14:14:32.907Z,77.83
2022-10-05T14:17:42.918Z,77.48
2022-10-05T14:20:39.871Z,76.22
2022-10-05T14:23:38.460Z,76.88
2022-10-05T14:26:36.064Z,77.80
2022-10-05T14:29:37.770Z,77.10
2022-10-05T14:32:55.994Z,75.80
2022-10-05T14:35:54.666Z,74.96
2022-10-05T14:38:55.250Z,75.76
2022-10-05T14:41:53.393Z,76.31
2022-10-05T14:44:59.479Z,76.08
2022-10-05T14:48:01.833Z,76.89
2022-10-05T14:51:03.462Z,76.95
2022-10-05T14:54:02.297Z,75.87
2022-10-05T14:57:18.118Z,76.38
2022-10-05T15:00:19.197Z,77.05
2022-10-05T15:03:18.969Z,76.15
2022-10-05T15:06:26.917Z,76.65
2022-10-05T15:09:33.409Z,75.41
2022-10-05T15:12:32.548Z,75.18
2022-10-05T15:15:37.132Z,75.81
2022-10-05T15:19:02.922Z,75.57
2022-10-05T15:22:06.121Z,75.27
2022-10-05T15:25:17.196Z,75.01
2022-10-05T15:28:24.866Z,75.96
2022-10-05T15:31:47.882Z,76.41
2022-10-05T15:35:24.242Z,77.49
2022-10-05T15:38:25.744Z,77.30
2022-10-05T15:41:40.073Z,76.83
2022-10-05T15:44:52.249Z,75.63
2022-10-05T15:48:17.599Z,74.90
2022-10-05T15:51:21.969Z,75.25
2022-10-05T15:54:41.901Z,75.57
2022-10-05T15:57:51.069Z,75.44
2022-10-05T16:00:51.150Z,76.12
2022-10-05T16:03:49.797Z,76.42
2022-10-05T16:07:27.972Z,75.88
2022-10-05T16:10:25.884Z,76.29
2022-10-05T16:13:34.952Z,77.07
2022-10-05T16:16:37.923Z,78.03
2022-10-05T16:20:19.029Z,77.10
2022-10-05T16:23:33.914Z,76.99
2022-10-05T16:26:51.181Z,77.28
2022-10-05T16:30:00.027Z,77.71
2022-10-05T16:33:14.403Z,77.30
2022-10-05T16:36:40.147Z,78.05
2022-10-05T16:39:57.185Z,77.59
2022-10-05T16:42:57.151Z,77.98
2022-10-05T16:46:14.822Z,77.42
2022-10-05T16:49:37.007Z,77.86
2022-10-05T16:52:34.054Z,78.47
2022-10-05T16:55:48.528Z,78.37
2022-10-05T16:59:11.193Z,79.48
2022-10-05T17:02:25.895Z,78.23
2022-10-05T17:05:30.402Z,77.82
2022-10-05T17:09:05.198Z,78.22
2022-10-05T17:12:14.215Z,78.88
2022-10-05T17:15:19.668Z,78.72
2022-10-05T17:18:54.774Z,78.38
2022-10-05T17:22:23.916Z,79.29
2022-10-05T17:25:39.581Z,78.83
2022-10-05T17:28:38.310Z,79.41
2022-10-05T17:32:00.804Z,79.55
2022-10-05T17:35:00.832Z,79.67
2022-10-05T17:38:22.702Z,79.29
2022-10-05T17:41:30.316Z,79.93
2022-10-05T17:44:27.228Z,79.51
2022-10-05T17:47:58.386Z,78.99
2022-10-05T17:51:13.888Z,79.12
2022-10-05T17:54:39.974Z,79.75
2022-10-05T17:57:37.658Z,79.92
2022-10-05T18:00:40.728Z,80.64
2022-10-05T18:03:43.253Z,80.36
2022-10-05T18:06:52.798Z,80.09
2022-10-05T18:09:54.334Z,79.90
2022-10-05T18:13:18.403Z,79.99
2022-10-05T18:16:53.687Z,80.16
2022-10-05T18:20:28.030Z,81.14
2022-10-05T18:23:26.749Z,81.30
2022-10-05T18:26:32.941Z,81.33
2022-10-05T18:30:02.735Z,81.01
2022-10-05T18:33:23.155Z,80.29
2022-10-05T18:36:40.504Z,79.47
2022-10-05T18:40:01.644Z,77.02
2022-10-05T18:43:22.390Z,75.50
2022-10-05T18:46:26.082Z,75.91
2022-10-05T18:49:42.493Z,75.69
2022-10-05T18:52:55.624Z,75.76
2022-10-05T18:56:20.913Z,75.66
2022-10-05T18:59:37.410Z,75.68
2022-10-05T19:02:39.814Z,75.23
2022-10-05T19:06:04.405Z,75.19
2022-10-05T19:09:17.556Z,75.80
2022-10-05T19:12:35.993Z,76.17
2022-10-05T19:15:46.399Z,76.20
2022-10-05T19:18:47.204Z,75.19
2022-10-05T19:22:03.750Z,76.71
2022-10-05T19:25:20.586Z,77.33
2022-10-05T19:28:34.913Z,76.79
2022-10-05T19:31:50.346Z,77.50
2022-10-05T19:35:46.104Z,77.28
2022-10-05T19:39:03.553Z,78.27
2022-10-05T19:42:41.386Z,78.16
2022-10-05T19:45:43.752Z,77.99
2022-10-05T19:48:45.935Z,78.25
2022-10-05T19:51:50.128Z,78.29
2022-10-05T19:54:49.088Z,77.98
2022-10-05T19:57:53.891Z,78.64
2022-10-05T20:00:56.858Z,78.59
2022-10-05T20:03:54.245Z,79.58
2022-10-05T20:06:51.346Z,79.07
2022-10-05T20:10:18.672Z,79.91
2022-10-05T20:13:22.766Z,78.55
2022-10-05T20:16:46.859Z,78.52
2022-10-05T20:19:56.283Z,79.04
2022-10-05T20:22:53.610Z,79.10
2022-10-05T20:26:10.243Z,79.07
2022-10-05T20:29:09.142Z,78.71
2022-10-05T20:32:12.245Z,78.44
2022-10-05T20:35:09.494Z,80.22
2022-10-05T20:38:06.331Z,79.71
2022-10-05T20:41:03.440Z,79.71
2022-10-05T20:44:00.465Z,80.31
2022-10-05T20:46:58.606Z,80.15
2022-10-05T20:49:56.336Z,80.25
2022-10-05T20:52:53.546Z,80.12
2022-10-05T20:55:50.378Z,80.44
2022-10-05T20:58:47.456Z,81.13
2022-10-05T21:01:48.103Z,80.97
2022-10-05T21:04:47.681Z,80.75
2022-10-05T21:07:45.124Z,80.62
2022-10-05T21:10:42.322Z,80.85
2022-10-05T21:13:45.252Z,81.19
2022-10-05T21:16:43.623Z,81.62
2022-10-05T21:19:41.282Z,82.39
2022-10-05T21:22:38.701Z,82.13
2022-10-05T21:25:36.026Z,82.11
2022-10-05T21:28:34.100Z,82.64
2022-10-05T21:31:31.395Z,82.70
2022-10-05T21:34:28.795Z,83.27
2022-10-05T21:37:26.202Z,83.07
2022-10-05T21:40:24.032Z,83.21
2022-10-05T21:43:21.060Z,83.42
2022-10-05T21:46:20.707Z,83.35
2022-10-05T21:49:19.823Z,83.18
2022-10-05T21:52:17.758Z,83.71
2022-10-05T21:55:16.063Z,83.85
2022-10-05T21:58:13.070Z,84.87
2022-10-05T22:01:11.005Z,86.99
2022-10-05T22:04:08.211Z,91.16
2022-10-05T22:07:23.634Z,89.71
2022-10-05T22:10:20.565Z,91.37
2022-10-05T22:13:17.762Z,90.01
2022-10-05T22:16:15.797Z,90.52
2022-10-05T22:19:14.743Z,92.24
2022-10-05T22:22:12.673Z,92.62
2022-10-05T22:25:09.567Z,91.71
2022-10-05T22:28:06.750Z,91.40
2022-10-05T22:31:04.983Z,91.99
2022-10-05T22:34:02.116Z,92.23
2022-10-05T22:36:59.508Z,93.69
2022-10-05T22:39:56.695Z,94.47
2022-10-05T22:42:53.971Z,95.34
2022-10-05T22:45:51.818Z,95.47
2022-10-05T22:48:49.725Z,95.51
2022-10-05T22:51:46.329Z,95.97
2022-10-05T22:54:43.523Z,95.65
2022-10-05T22:57:40.745Z,95.41
2022-10-05T23:00:57.094Z,95.04
2022-10-05T23:03:57.261Z,93.43
2022-10-05T23:06:54.287Z,93.56
2022-10-05T23:09:51.303Z,93.39
2022-10-05T23:12:59.685Z,92.78
2022-10-05T23:15:58.369Z,92.13
2022-10-05T23:18:56.015Z,91.41
2022-10-05T23:21:53.453Z,90.23
2022-10-05T23:24:50.740Z,90.68
2022-10-05T23:27:48.697Z,90.77
2022-10-05T23:30:45.726Z,91.03
2022-10-05T23:33:43.436Z,89.93
2022-10-05T23:36:40.790Z,89.59
2022-10-05T23:39:38.580Z,89.69
2022-10-05T23:42:35.534Z,88.89
2022-10-05T23:45:32.426Z,88.85
2022-10-05T23:48:30.624Z,88.75
2022-10-05T23:51:28.205Z,88.29
2022-10-05T23:54:25.107Z,88.65
2022-10-05T23:57:22.665Z,88.68
